sensor_id;sensor_type;location;lat;lon;timestamp;P1;durP1;ratioP1;P2;durP2;ratioP2
3401;SDS011;1714;49.756;8.610;2023-08-21T00:04:19;7.03;;;5.10;;
3401;SDS011;1714;49.756;8.610;2023-08-21T00:14:54;7.78;;;5.05;;
3401;SDS011;1714;49.756;8.610;2023-08-21T00:25:29;7.35;;;5.20;;
3401;SDS011;1714;49.756;8.610;2023-08-21T00:36:04;6.20;;;5.13;;
3401;SDS011;1714;49.756;8.610;2023-08-21T00:46:39;5.45;;;4.55;;
3401;SDS011;1714;49.756;8.610;2023-08-21T00:57:15;6.45;;;5.03;;
3401;SDS011;1714;49.756;8.610;2023-08-21T01:07:52;7.70;;;5.88;;
3401;SDS011;1714;49.756;8.610;2023-08-21T01:18:32;7.18;;;5.72;;
3401;SDS011;1714;49.756;8.610;2023-08-21T01:29:09;12.27;;;5.97;;
3401;SDS011;1714;49.756;8.610;2023-08-21T01:39:43;7.45;;;5.97;;
3401;SDS011;1714;49.756;8.610;2023-08-21T01:50:18;7.53;;;5.03;;
3401;SDS011;1714;49.756;8.610;2023-08-21T02:00:54;7.45;;;5.30;;
3401;SDS011;1714;49.756;8.610;2023-08-21T02:11:30;6.53;;;5.63;;
3401;SDS011;1714;49.756;8.610;2023-08-21T02:22:05;7.68;;;5.53;;
3401;SDS011;1714;49.756;8.610;2023-08-21T02:32:40;6.93;;;5.63;;
3401;SDS011;1714;49.756;8.610;2023-08-21T02:43:15;10.75;;;6.07;;
3401;SDS011;1714;49.756;8.610;2023-08-21T02:53:51;8.20;;;5.53;;
3401;SDS011;1714;49.756;8.610;2023-08-21T03:04:26;11.02;;;6.32;;
3401;SDS011;1714;49.756;8.610;2023-08-21T03:15:01;8.88;;;6.63;;
3401;SDS011;1714;49.756;8.610;2023-08-21T03:25:35;9.73;;;7.72;;
3401;SDS011;1714;49.756;8.610;2023-08-21T03:36:10;11.48;;;7.70;;
3401;SDS011;1714;49.756;8.610;2023-08-21T03:46:45;13.77;;;6.65;;
3401;SDS011;1714;49.756;8.610;2023-08-21T03:57:21;7.40;;;6.65;;
3401;SDS011;1714;49.756;8.610;2023-08-21T04:07:56;12.48;;;7.75;;
3401;SDS011;1714;49.756;8.610;2023-08-21T04:18:31;9.00;;;6.88;;
3401;SDS011;1714;49.756;8.610;2023-08-21T04:29:15;9.45;;;7.95;;
3401;SDS011;1714;49.756;8.610;2023-08-21T04:39:50;9.38;;;7.18;;
3401;SDS011;1714;49.756;8.610;2023-08-21T04:50:26;8.93;;;7.50;;
3401;SDS011;1714;49.756;8.610;2023-08-21T05:01:01;9.40;;;7.32;;
3401;SDS011;1714;49.756;8.610;2023-08-21T05:11:42;13.93;;;7.82;;
3401;SDS011;1714;49.756;8.610;2023-08-21T05:22:18;9.05;;;7.85;;
3401;SDS011;1714;49.756;8.610;2023-08-21T05:32:54;12.02;;;8.27;;
3401;SDS011;1714;49.756;8.610;2023-08-21T05:43:30;10.32;;;8.98;;
3401;SDS011;1714;49.756;8.610;2023-08-21T05:54:05;11.70;;;8.57;;
3401;SDS011;1714;49.756;8.610;2023-08-21T06:04:42;11.60;;;8.25;;
3401;SDS011;1714;49.756;8.610;2023-08-21T06:15:18;12.25;;;8.80;;
3401;SDS011;1714;49.756;8.610;2023-08-21T06:25:53;11.07;;;8.05;;
3401;SDS011;1714;49.756;8.610;2023-08-21T06:36:30;10.25;;;8.00;;
3401;SDS011;1714;49.756;8.610;2023-08-21T06:47:08;13.77;;;7.75;;
3401;SDS011;1714;49.756;8.610;2023-08-21T06:57:44;10.20;;;8.20;;
3401;SDS011;1714;49.756;8.610;2023-08-21T07:08:19;10.30;;;8.10;;
3401;SDS011;1714;49.756;8.610;2023-08-21T07:18:55;10.43;;;7.38;;
3401;SDS011;1714;49.756;8.610;2023-08-21T07:29:30;10.90;;;7.88;;
3401;SDS011;1714;49.756;8.610;2023-08-21T07:40:05;11.57;;;7.70;;
3401;SDS011;1714;49.756;8.610;2023-08-21T07:50:41;10.68;;;6.90;;
3401;SDS011;1714;49.756;8.610;2023-08-21T08:01:27;9.25;;;7.05;;
3401;SDS011;1714;49.756;8.610;2023-08-21T08:12:02;8.60;;;7.70;;
3401;SDS011;1714;49.756;8.610;2023-08-21T08:33:15;7.45;;;6.70;;
3401;SDS011;1714;49.756;8.610;2023-08-21T08:43:50;9.68;;;7.07;;
3401;SDS011;1714;49.756;8.610;2023-08-21T08:54:31;12.05;;;7.32;;
3401;SDS011;1714;49.756;8.610;2023-08-21T09:05:10;8.63;;;6.65;;
3401;SDS011;1714;49.756;8.610;2023-08-21T09:15:45;7.25;;;5.93;;
3401;SDS011;1714;49.756;8.610;2023-08-21T09:26:23;9.82;;;6.32;;
3401;SDS011;1714;49.756;8.610;2023-08-21T09:36:59;7.25;;;6.20;;
3401;SDS011;1714;49.756;8.610;2023-08-21T09:47:34;9.75;;;6.47;;
3401;SDS011;1714;49.756;8.610;2023-08-21T09:58:11;6.37;;;5.10;;
3401;SDS011;1714;49.756;8.610;2023-08-21T10:08:48;8.67;;;5.37;;
3401;SDS011;1714;49.756;8.610;2023-08-21T10:19:31;11.52;;;5.30;;
3401;SDS011;1714;49.756;8.610;2023-08-21T10:30:13;6.75;;;4.75;;
3401;SDS011;1714;49.756;8.610;2023-08-21T10:41:07;6.97;;;4.90;;
3401;SDS011;1714;49.756;8.610;2023-08-21T10:51:45;5.35;;;4.70;;
3401;SDS011;1714;49.756;8.610;2023-08-21T11:02:20;5.22;;;3.80;;
3401;SDS011;1714;49.756;8.610;2023-08-21T11:12:57;5.17;;;3.60;;
3401;SDS011;1714;49.756;8.610;2023-08-21T11:23:36;6.90;;;2.97;;
3401;SDS011;1714;49.756;8.610;2023-08-21T11:34:18;2.17;;;1.48;;
3401;SDS011;1714;49.756;8.610;2023-08-21T11:44:58;3.22;;;2.10;;
3401;SDS011;1714;49.756;8.610;2023-08-21T11:55:34;3.97;;;2.75;;
3401;SDS011;1714;49.756;8.610;2023-08-21T12:06:10;4.47;;;1.87;;
3401;SDS011;1714;49.756;8.610;2023-08-21T12:16:46;2.10;;;1.70;;
3401;SDS011;1714;49.756;8.610;2023-08-21T12:27:21;2.25;;;1.52;;
3401;SDS011;1714;49.756;8.610;2023-08-21T12:37:57;2.13;;;1.50;;
3401;SDS011;1714;49.756;8.610;2023-08-21T12:48:39;6.07;;;1.95;;
3401;SDS011;1714;49.756;8.610;2023-08-21T12:59:14;2.50;;;1.65;;
3401;SDS011;1714;49.756;8.610;2023-08-21T13:09:53;2.25;;;1.73;;
3401;SDS011;1714;49.756;8.610;2023-08-21T13:20:28;4.17;;;1.80;;
3401;SDS011;1714;49.756;8.610;2023-08-21T13:31:03;2.93;;;1.87;;
3401;SDS011;1714;49.756;8.610;2023-08-21T13:41:38;1.97;;;1.20;;
3401;SDS011;1714;49.756;8.610;2023-08-21T13:52:13;1.27;;;1.17;;
3401;SDS011;1714;49.756;8.610;2023-08-21T14:02:50;1.47;;;1.13;;
3401;SDS011;1714;49.756;8.610;2023-08-21T14:13:25;1.48;;;1.17;;
3401;SDS011;1714;49.756;8.610;2023-08-21T14:24:00;3.43;;;1.53;;
3401;SDS011;1714;49.756;8.610;2023-08-21T14:34:35;3.63;;;1.83;;
3401;SDS011;1714;49.756;8.610;2023-08-21T14:45:10;1.45;;;1.35;;
3401;SDS011;1714;49.756;8.610;2023-08-21T14:55:45;2.25;;;1.25;;
3401;SDS011;1714;49.756;8.610;2023-08-21T15:06:20;1.57;;;1.00;;
3401;SDS011;1714;49.756;8.610;2023-08-21T15:16:55;3.03;;;1.67;;
3401;SDS011;1714;49.756;8.610;2023-08-21T15:27:50;1.60;;;1.23;;
3401;SDS011;1714;49.756;8.610;2023-08-21T15:38:25;4.53;;;1.80;;
3401;SDS011;1714;49.756;8.610;2023-08-21T15:49:00;2.77;;;1.30;;
3401;SDS011;1714;49.756;8.610;2023-08-21T15:59:35;2.22;;;1.80;;
3401;SDS011;1714;49.756;8.610;2023-08-21T16:10:12;2.72;;;1.40;;
3401;SDS011;1714;49.756;8.610;2023-08-21T16:20:47;3.78;;;2.50;;
3401;SDS011;1714;49.756;8.610;2023-08-21T16:31:23;3.53;;;1.63;;
3401;SDS011;1714;49.756;8.610;2023-08-21T16:41:58;6.75;;;1.70;;
3401;SDS011;1714;49.756;8.610;2023-08-21T16:52:33;2.63;;;2.05;;
3401;SDS011;1714;49.756;8.610;2023-08-21T17:03:09;3.17;;;1.80;;
3401;SDS011;1714;49.756;8.610;2023-08-21T17:13:44;3.20;;;1.60;;
3401;SDS011;1714;49.756;8.610;2023-08-21T17:24:21;2.00;;;1.45;;
3401;SDS011;1714;49.756;8.610;2023-08-21T17:34:56;3.55;;;1.63;;
3401;SDS011;1714;49.756;8.610;2023-08-21T17:45:31;5.88;;;1.88;;
3401;SDS011;1714;49.756;8.610;2023-08-21T17:56:07;4.00;;;2.33;;
3401;SDS011;1714;49.756;8.610;2023-08-21T18:06:42;3.17;;;1.75;;
3401;SDS011;1714;49.756;8.610;2023-08-21T18:17:17;2.03;;;1.67;;
3401;SDS011;1714;49.756;8.610;2023-08-21T18:27:52;3.45;;;2.70;;
3401;SDS011;1714;49.756;8.610;2023-08-21T18:38:27;4.80;;;2.15;;
3401;SDS011;1714;49.756;8.610;2023-08-21T18:49:03;2.55;;;1.90;;
3401;SDS011;1714;49.756;8.610;2023-08-21T18:59:38;2.28;;;2.00;;
3401;SDS011;1714;49.756;8.610;2023-08-21T19:10:13;3.67;;;2.47;;
3401;SDS011;1714;49.756;8.610;2023-08-21T19:20:48;6.97;;;2.53;;
3401;SDS011;1714;49.756;8.610;2023-08-21T19:31:23;2.95;;;2.65;;
3401;SDS011;1714;49.756;8.610;2023-08-21T19:41:58;2.90;;;2.35;;
3401;SDS011;1714;49.756;8.610;2023-08-21T19:52:33;6.85;;;2.20;;
3401;SDS011;1714;49.756;8.610;2023-08-21T20:03:09;3.63;;;2.92;;
3401;SDS011;1714;49.756;8.610;2023-08-21T20:13:45;5.27;;;2.43;;
3401;SDS011;1714;49.756;8.610;2023-08-21T20:24:20;4.78;;;2.92;;
3401;SDS011;1714;49.756;8.610;2023-08-21T20:34:59;5.38;;;3.22;;
3401;SDS011;1714;49.756;8.610;2023-08-21T20:45:33;4.25;;;2.78;;
3401;SDS011;1714;49.756;8.610;2023-08-21T20:56:08;8.02;;;3.30;;
3401;SDS011;1714;49.756;8.610;2023-08-21T21:06:44;5.00;;;3.25;;
3401;SDS011;1714;49.756;8.610;2023-08-21T21:27:57;6.15;;;3.35;;
3401;SDS011;1714;49.756;8.610;2023-08-21T21:38:32;4.65;;;3.10;;
3401;SDS011;1714;49.756;8.610;2023-08-21T21:49:09;3.45;;;2.38;;
3401;SDS011;1714;49.756;8.610;2023-08-21T21:59:43;4.10;;;3.08;;
3401;SDS011;1714;49.756;8.610;2023-08-21T22:10:18;5.88;;;2.80;;
3401;SDS011;1714;49.756;8.610;2023-08-21T22:20:54;6.22;;;3.13;;
3401;SDS011;1714;49.756;8.610;2023-08-21T22:31:29;9.35;;;3.10;;
3401;SDS011;1714;49.756;8.610;2023-08-21T22:42:14;4.45;;;3.40;;
3401;SDS011;1714;49.756;8.610;2023-08-21T22:52:50;4.82;;;3.40;;
3401;SDS011;1714;49.756;8.610;2023-08-21T23:03:25;9.68;;;4.00;;
3401;SDS011;1714;49.756;8.610;2023-08-21T23:14:00;5.45;;;3.15;;
3401;SDS011;1714;49.756;8.610;2023-08-21T23:24:35;5.28;;;3.60;;
3401;SDS011;1714;49.756;8.610;2023-08-21T23:35:11;7.65;;;3.90;;
3401;SDS011;1714;49.756;8.610;2023-08-21T23:45:45;4.97;;;3.40;;
3401;SDS011;1714;49.756;8.610;2023-08-21T23:56:20;6.45;;;3.42;;
